Madison Park, Louisiana
Current Conditions -  °F | °C
As of 6:58 AM on Friday 28 Nov 2014 (Local Time) from KBAD Reporting Station
Clear Clear  
Wind Chill: 25°   Ceiling: Unl
Heat Index: 32°   Visibility: 10mi
Dew Point: 31°   Wind: 9mph
Humidity: 93%   Direction: 160°SSE
Pressure: 30.37"   Gusts: NA
Location:  32.457°N, 93.7096°W
Report Text: KBAD 281258Z AUTO 16008KT 10SM CLR 00/M01 A3037 RMK AO2 SLP288 T00021008
Loading
Personal Weather Stations






























Interactive Weather Map New forecast layout! Learn more

10-Day Weather Forecast

Advertisements
Track Severe Weather on mobile